NCAR-RAP Real-Time Weather Data

Output produced by METARs form (12 August 2020  18:02 UTC)
found at http://weather.rap.ucar.edu/surface/
 
KALB 121751Z 26006KT 10SM FEW050 SCT250 27/17 A3005 RMK AO2 SLP175 T02720167 10272 20217 55003
KALB 121651Z 27009KT 10SM SCT037 SCT045 BKN250 27/20 A3005 RMK AO2 SLP174 T02720200
KALB 121551Z 29005KT 10SM SCT035 BKN250 26/20 A3006 RMK AO2 SLP177 T02610200
KALB 121451Z 30007KT 10SM FEW023 SCT028 SCT040 BKN250 26/21 A3006 RMK AO2 SLP178 T02560211 51008
KALB 121442Z 30006KT 10SM FEW023 SCT028 SCT040 BKN250 25/21 A3006 RMK AO2 T02500206
KALB 121351Z 28006KT 10SM BKN018 BKN250 23/21 A3005 RMK AO2 SLP175 T02330211
KALB 121342Z VRB05KT 10SM BKN018 BKN250 23/21 A3005 RMK AO2 T02330211
KALB 121251Z 26005KT 10SM VCFG FEW005 FEW015 FEW130 BKN250 23/21 A3005 RMK AO2 SLP174 VCFG SW-W T02280206
KALB 121151Z 00000KT 10SM VCFG FEW001 FEW006 FEW050 FEW130 BKN250 21/21 A3004 RMK AO2 SLP170 VCFG E AND SW-W 70001 T02110206 10211 20183 51014
KALB 121051Z 00000KT 10SM BCFG FEW001 FEW050 SCT120 BKN260 19/19 A3003 RMK AO2 SLP166 VIS N 1 BCFG NW-NE T01940194
KALB 120951Z 00000KT 10SM BCFG FEW002 FEW050 SCT260 19/19 A3001 RMK AO2 SLP161 VIS N 1 1/2 BCFG NW-NE T01890189
KALB 120851Z 00000KT 10SM SCT260 19/19 A3000 RMK AO2 SLP156 T01940194 53010
KALB 120751Z 31003KT 10SM FEW140 SCT260 19/19 A2999 RMK AO2 SLP152 T01940194
KALB 120651Z 00000KT 10SM SCT140 BKN260 20/20 A2998 RMK AO2 SLP149 T02000200
KALB 120551Z 16004KT 10SM OVC140 21/21 A2997 RMK AO2 SLP146 60001 T02110206 10278 20206 53009
KALB 120451Z 17004KT 10SM FEW060 OVC130 21/21 A2996 RMK AO2 SLP144 T02060206 403060189
KALB 120351Z 11003KT 10SM FEW055 FEW095 OVC140 21/21 A2994 RMK AO2 RAE28 SLP138 PRESENT WX VCSH P0001 T02110211
KALB 120251Z 26005KT 10SM -RA SCT055 SCT075 BKN100 OVC140 21/21 A2994 RMK AO2 LTG DSNT E-S RAB01 TSE42 SLP137 OCNL LTGICCG DSNT NE-SE CB DSNT NE-SE MOV E P0000 60000 T02110206 51030
KALB 120242Z 27006KT 10SM -RA SCT055 SCT080 BKN110 21/21 A2994 RMK AO2 LTG DSNT E AND SE RAB01 TSE42 OCNL LTGICCG DSNT NE-SE CB DSNT NE-SE MOV E P0000 T02110206
KALB 120151Z 25015KT 10SM TS FEW035 BKN046CB BKN070 OVC140 24/19 A2992 RMK AO2 PK WND 28026/0118 WSHFT 0111 LTG DSNT NE AND E AND SW RAB23E34 TSB34 SLP130 FRQ LTGICCG VC NE-E TS VC NE-E MOV E P0000 T02390189
KALB 120134Z 28009KT 10SM TS SCT040 BKN050CB BKN070 24/19 A2992 RMK AO2 PK WND 28026/0118 WSHFT 0111 LTG DSNT N AND NE RAB23E34 TSB34 OCNL LTGICCG N-NE TS N-NE MOV E P0000 T02440189
KALB 120131Z 29008KT 260V320 10SM -RA SCT040 BKN050CB BKN070 24/19 A2992 RMK AO2 PK WND 28026/0118 WSHFT 0111 LTG DSNT NW-NE RAB23 OCNL LTGICCG N-NE CB N-NE MOV E P0000 T02440189
KALB 120051Z 18010KT 10SM FEW048 FEW065 BKN140 BKN250 27/20 A2988 RMK AO2 LTG DSNT W-N SLP116 OCNL LTGICCG DSNT W-NW CB DSNT W-NW MOV E T02720200
KALB 112351Z 17010KT 10SM FEW065 FEW140 BKN250 28/19 A2985 RMK AO2 SLP107 T02780189 10306 20278 55001
KALB 112251Z 17012KT 10SM FEW070 FEW220 BKN250 29/19 A2984 RMK AO2 SLP104 T02890189
KALB 112151Z 17013G19KT 10SM FEW040 FEW070 SCT220 BKN250 30/19 A2985 RMK AO2 SLP106 T03000189
KALB 112051Z 16010G19KT 10SM FEW040 FEW060 SCT220 31/21 A2985 RMK AO2 SLP108 T03060206 56016
KALB 111951Z 17011G18KT 10SM FEW040 FEW060 SCT250 30/21 A2986 RMK AO2 SLP110 T03000211
KALB 111851Z 15010KT 10SM FEW040 SCT060 SCT250 29/22 A2988 RMK AO2 SLP116 T02940217
KALB 111751Z 17012KT 10SM FEW055 FEW180 SCT250 30/22 A2990 RMK AO2 SLP123 T03000217 10300 20206 56020
KALB 111651Z 14009KT 10SM FEW050 SCT250 29/21 A2991 RMK AO2 SLP128 T02940211
KALB 111551Z 14006KT 10SM FEW040 SCT250 28/22 A2994 RMK AO2 SLP137 T02780222
KALB 111451Z 14007KT 10SM FEW035 FEW070 FEW200 SCT250 26/22 A2996 RMK AO2 SLP143 T02560217 58004
KALB 111351Z 14006KT 10SM FEW080 FEW200 SCT250 24/21 A2997 RMK AO2 SLP146 T02390211
KALB 111251Z 16007KT 10SM VCFG FEW005 FEW080 SCT250 22/21 A2997 RMK AO2 SLP148 VCFG SW-W T02170206
KALB 111151Z 16005KT 10SM VCFG FEW001 FEW040 BKN250 21/19 A2997 RMK AO2 SLP147 VCFG SW-W 70031 T02060194 10206 20189 53007
KALB 111057Z 18005KT 10SM VCFG FEW005 BKN250 19/19 A2996 RMK AO2 VCFG SW-W T01940194
KALB 111051Z 18005KT 10SM VCFG FEW005 BKN250 19/19 A2996 RMK AO2 SLP143 VCFG SW-W T01940194
KALB 110951Z 16006KT 10SM VCFG FEW070 BKN250 19/19 A2995 RMK AO2 SLP139 VCFG SW-W T01940194
KALB 110851Z 16004KT 10SM SCT070 SCT090 BKN250 19/19 A2995 RMK AO2 SLP140 T01940194 55000
KALB 110751Z 00000KT 10SM SCT070 SCT190 BKN250 20/20 A2995 RMK AO2 SLP140 T02000200
KALB 110651Z 17004KT 10SM FEW160 BKN190 BKN250 20/20 A2995 RMK AO2 SLP140 T02000200
KALB 110551Z 18003KT 10SM FEW160 BKN190 BKN250 20/20 A2995 RMK AO2 SLP141 T02000200 10222 20194 58003
KALB 110451Z 19005KT 10SM BKN190 BKN250 19/19 A2996 RMK AO2 SLP142 T01940194 403060178
KALB 110351Z 16004KT 10SM FEW180 BKN250 20/19 A2996 RMK AO2 SLP143 T02000194
KALB 110251Z 00000KT 10SM BKN180 BKN250 21/20 A2996 RMK AO2 SLP144 T02110200 50003
KALB 110151Z 13004KT 10SM FEW046 FEW180 BKN250 21/21 A2996 RMK AO2 SLP144 T02060206
KALB 110051Z 14006KT 10SM FEW046 FEW180 BKN250 21/21 A2997 RMK AO2 SLP147 T02110206
KALB 102351Z 13006KT 10SM FEW042 FEW049 SCT180 BKN250 22/21 A2995 RMK AO2 SLP141 60031 T02220211 10306 20211 50002
KALB 102251Z 15007KT 10SM FEW042 FEW049 BKN180 24/23 A2996 RMK AO2 RAE2156 TSE25 SLP143 P0000 T02390228
KALB 102225Z 17004KT 10SM FEW012 SCT042 SCT049 BKN180 23/22 A2996 RMK AO2 LTG DSNT E RAE2156 TSE25 CB DSNT NE-SE MOV E P0000 T02280222
KALB 102151Z 19005G15KT 4SM R01/6000VP6000FT -TSRA FEW012 SCT024 BKN046CB BKN140 23/21 A2996 RMK AO2 PK WND 22027/2135 LTG DSNT S RAB23 TSB14 SLP143 OCNL LTGICCG E-S TS E-S MOV E P0031 T02280211
KALB 102138Z 22020G27KT 3/4SM R01/1600VP6000FT +TSRA FEW018 BKN046CB BKN060 22/21 A2998 RMK AO2 PK WND 22027/2135 TWR VIS 2 1/2 RAB23 TSB14 OCNL LTGICCG OHD-S TS OHD-S MOV SE P0003 T02220211
KALB 102114Z 19010KT 10SM TS SCT050CB SCT060 BKN085 27/22 A2995 RMK AO2 LTG DSNT SW TSB14 OCNL LTGICCG VC SW-W TS VC SW-W MOV SE T02720217
KALB 102051Z COR 17007KT 10SM SCT048 SCT080 SCT140 BKN250 29/22 A2995 RMK AO2 LTG DSNT SE-SW SLP139 CB DSNT S-SW MOV SE T02890222 56012
KALB 101951Z 24006KT 10SM SCT042 SCT080 SCT140 BKN250 30/20 A2995 RMK AO2 LTG DSNT W SLP141 CB DSNT S AND SW MOV SE T03000200
KALB 101851Z 27008KT 10SM SCT042 BKN080 BKN250 30/22 A2997 RMK AO2 SLP148 CB DSNT S MOV SE T03000222